CheckWX is a tool to help pilots better visualize weather data.  It is not intended as a substitute for an official pre-flight weather briefing.

02:08:54 UTC

LEMO METAR
Moron Air Base Airport
Morón, Spain
Current

1 hour ago

LEMO 180100Z 22018G28KT 9999 FEW008 BKN011 BKN013 15/13 Q1012 NOSIG
Observed
Nov-18 @ 01:00 UTC
Wind
  • 220° at 18 KTS
  • Gusting to 28 KTS
Visibility
10,000+ meters
Flight Rules
MVFR
Cloud Levels
  • Few at 800' AGL
  • Broken at 1,100' AGL
  • Broken at 1,300' AGL
Temperature
15°C / 59°F
Dewpoint
13°C / 55°F
Humidity
88%
Altimeter
29.88" Hg
Pressure
1011.92 hPa
Previous

2 hours ago

LEMO 180000Z 23014KT 5000 FEW009 BKN010 BKN016 14/13 Q1013 NOSIG
Observed
Nov-18 @ 00:00 UTC
Wind
  • 230° at 14 KTS
Visibility
5,000 meters
Flight Rules
MVFR
Cloud Levels
  • Few at 900' AGL
  • Broken at 1,000' AGL
  • Broken at 1,600' AGL
Temperature
14°C / 57°F
Dewpoint
13°C / 55°F
Humidity
94%
Altimeter
29.91" Hg
Pressure
1012.92 hPa
Previous

3 hours ago

LEMO 172332Z 23013KT 200V270 5000 -DZ FEW009 BKN010 BKN017 15/13 Q1014 NOSIG
Observed
Nov-17 @ 23:32 UTC
Wind
  • 230° at 13 KTS
Visibility
5,000 meters
Flight Rules
MVFR
Conditions
Light Drizzle
Cloud Levels
  • Few at 900' AGL
  • Broken at 1,000' AGL
  • Broken at 1,700' AGL
Temperature
15°C / 59°F
Dewpoint
13°C / 55°F
Humidity
88%
Altimeter
29.94" Hg
Pressure
1013.92 hPa